sensor_id;sensor_type;location;lat;lon;timestamp;P1;durP1;ratioP1;P2;durP2;ratioP2
58372;SDS011;44177;43.356;27.672;2023-09-30T00:00:00;10.75;;;5.60;;
58372;SDS011;44177;43.356;27.672;2023-09-30T00:02:26;8.82;;;5.47;;
58372;SDS011;44177;43.356;27.672;2023-09-30T00:04:52;9.63;;;5.20;;
58372;SDS011;44177;43.356;27.672;2023-09-30T00:07:18;12.43;;;5.65;;
58372;SDS011;44177;43.356;27.672;2023-09-30T00:09:43;10.77;;;5.38;;
58372;SDS011;44177;43.356;27.672;2023-09-30T00:12:08;14.27;;;5.60;;
58372;SDS011;44177;43.356;27.672;2023-09-30T00:14:34;11.68;;;5.78;;
58372;SDS011;44177;43.356;27.672;2023-09-30T00:17:01;15.18;;;5.93;;
58372;SDS011;44177;43.356;27.672;2023-09-30T00:19:26;10.13;;;5.22;;
58372;SDS011;44177;43.356;27.672;2023-09-30T00:21:52;12.60;;;6.10;;
58372;SDS011;44177;43.356;27.672;2023-09-30T00:24:17;14.68;;;5.75;;
58372;SDS011;44177;43.356;27.672;2023-09-30T00:26:43;11.40;;;5.60;;
58372;SDS011;44177;43.356;27.672;2023-09-30T00:29:08;10.88;;;5.75;;
58372;SDS011;44177;43.356;27.672;2023-09-30T00:31:35;14.23;;;6.75;;
58372;SDS011;44177;43.356;27.672;2023-09-30T00:34:01;14.73;;;5.15;;
58372;SDS011;44177;43.356;27.672;2023-09-30T00:36:26;10.55;;;5.40;;
58372;SDS011;44177;43.356;27.672;2023-09-30T00:38:51;11.13;;;5.45;;
58372;SDS011;44177;43.356;27.672;2023-09-30T00:41:17;9.23;;;5.28;;
58372;SDS011;44177;43.356;27.672;2023-09-30T00:43:43;12.15;;;5.78;;
58372;SDS011;44177;43.356;27.672;2023-09-30T00:48:39;13.82;;;5.00;;
58372;SDS011;44177;43.356;27.672;2023-09-30T00:51:04;11.38;;;5.00;;
58372;SDS011;44177;43.356;27.672;2023-09-30T00:53:31;10.23;;;4.72;;
58372;SDS011;44177;43.356;27.672;2023-09-30T00:55:57;7.30;;;4.53;;
58372;SDS011;44177;43.356;27.672;2023-09-30T00:58:25;6.43;;;4.50;;
58372;SDS011;44177;43.356;27.672;2023-09-30T01:00:53;9.80;;;4.53;;
58372;SDS011;44177;43.356;27.672;2023-09-30T01:03:21;8.30;;;3.95;;
58372;SDS011;44177;43.356;27.672;2023-09-30T01:05:47;9.13;;;3.97;;
58372;SDS011;44177;43.356;27.672;2023-09-30T01:08:14;9.75;;;4.35;;
58372;SDS011;44177;43.356;27.672;2023-09-30T01:10:41;10.43;;;3.90;;
58372;SDS011;44177;43.356;27.672;2023-09-30T01:13:07;8.57;;;4.28;;
58372;SDS011;44177;43.356;27.672;2023-09-30T01:15:32;7.05;;;3.72;;
58372;SDS011;44177;43.356;27.672;2023-09-30T01:17:58;10.23;;;3.90;;
58372;SDS011;44177;43.356;27.672;2023-09-30T01:20:23;8.65;;;3.28;;
58372;SDS011;44177;43.356;27.672;2023-09-30T01:22:49;9.50;;;4.00;;
58372;SDS011;44177;43.356;27.672;2023-09-30T01:25:15;6.70;;;3.60;;
58372;SDS011;44177;43.356;27.672;2023-09-30T01:27:40;9.05;;;4.07;;
58372;SDS011;44177;43.356;27.672;2023-09-30T01:30:06;8.77;;;3.53;;
58372;SDS011;44177;43.356;27.672;2023-09-30T01:32:36;5.57;;;3.58;;
58372;SDS011;44177;43.356;27.672;2023-09-30T01:35:02;11.18;;;4.15;;
58372;SDS011;44177;43.356;27.672;2023-09-30T01:37:27;9.30;;;3.95;;
58372;SDS011;44177;43.356;27.672;2023-09-30T01:39:53;7.50;;;3.60;;
58372;SDS011;44177;43.356;27.672;2023-09-30T01:42:20;7.45;;;3.90;;
58372;SDS011;44177;43.356;27.672;2023-09-30T01:44:45;8.82;;;3.90;;
58372;SDS011;44177;43.356;27.672;2023-09-30T01:47:11;11.70;;;3.95;;
58372;SDS011;44177;43.356;27.672;2023-09-30T01:49:37;9.50;;;3.55;;
58372;SDS011;44177;43.356;27.672;2023-09-30T01:52:02;6.78;;;3.65;;
58372;SDS011;44177;43.356;27.672;2023-09-30T01:54:28;9.50;;;4.03;;
58372;SDS011;44177;43.356;27.672;2023-09-30T01:56:54;9.18;;;3.95;;
58372;SDS011;44177;43.356;27.672;2023-09-30T01:59:19;9.35;;;3.70;;
58372;SDS011;44177;43.356;27.672;2023-09-30T02:01:44;10.05;;;4.18;;
58372;SDS011;44177;43.356;27.672;2023-09-30T02:04:12;9.50;;;3.80;;
58372;SDS011;44177;43.356;27.672;2023-09-30T02:06:40;9.18;;;4.00;;
58372;SDS011;44177;43.356;27.672;2023-09-30T02:09:09;10.55;;;4.85;;
58372;SDS011;44177;43.356;27.672;2023-09-30T02:11:35;9.00;;;4.10;;
58372;SDS011;44177;43.356;27.672;2023-09-30T02:14:02;6.78;;;3.83;;
58372;SDS011;44177;43.356;27.672;2023-09-30T02:16:27;10.20;;;4.18;;
58372;SDS011;44177;43.356;27.672;2023-09-30T02:18:53;7.65;;;4.00;;
58372;SDS011;44177;43.356;27.672;2023-09-30T02:21:18;7.38;;;3.60;;
58372;SDS011;44177;43.356;27.672;2023-09-30T02:23:44;9.60;;;3.78;;
58372;SDS011;44177;43.356;27.672;2023-09-30T02:26:13;10.52;;;3.95;;
58372;SDS011;44177;43.356;27.672;2023-09-30T02:28:39;9.55;;;3.90;;
58372;SDS011;44177;43.356;27.672;2023-09-30T02:31:05;13.10;;;4.10;;
58372;SDS011;44177;43.356;27.672;2023-09-30T02:33:32;10.00;;;4.20;;
58372;SDS011;44177;43.356;27.672;2023-09-30T02:36:00;11.40;;;3.63;;
58372;SDS011;44177;43.356;27.672;2023-09-30T02:38:26;11.43;;;4.40;;
58372;SDS011;44177;43.356;27.672;2023-09-30T02:40:53;8.05;;;3.88;;
58372;SDS011;44177;43.356;27.672;2023-09-30T02:43:19;10.88;;;4.40;;
58372;SDS011;44177;43.356;27.672;2023-09-30T02:45:45;12.90;;;3.97;;
58372;SDS011;44177;43.356;27.672;2023-09-30T02:48:11;5.45;;;3.80;;
58372;SDS011;44177;43.356;27.672;2023-09-30T02:50:36;7.82;;;4.18;;
58372;SDS011;44177;43.356;27.672;2023-09-30T02:53:02;7.28;;;3.95;;
58372;SDS011;44177;43.356;27.672;2023-09-30T02:55:29;13.35;;;4.63;;
58372;SDS011;44177;43.356;27.672;2023-09-30T02:57:54;10.32;;;3.97;;
58372;SDS011;44177;43.356;27.672;2023-09-30T03:00:21;10.18;;;3.70;;
58372;SDS011;44177;43.356;27.672;2023-09-30T03:02:51;7.15;;;3.67;;
58372;SDS011;44177;43.356;27.672;2023-09-30T03:05:18;13.15;;;4.00;;
58372;SDS011;44177;43.356;27.672;2023-09-30T03:07:44;11.07;;;4.00;;
58372;SDS011;44177;43.356;27.672;2023-09-30T03:10:10;12.60;;;4.28;;
58372;SDS011;44177;43.356;27.672;2023-09-30T03:12:37;11.02;;;3.92;;
58372;SDS011;44177;43.356;27.672;2023-09-30T03:15:04;12.20;;;4.10;;
58372;SDS011;44177;43.356;27.672;2023-09-30T03:17:32;12.23;;;4.38;;
58372;SDS011;44177;43.356;27.672;2023-09-30T03:20:00;11.90;;;4.25;;
58372;SDS011;44177;43.356;27.672;2023-09-30T03:22:26;11.20;;;3.53;;
58372;SDS011;44177;43.356;27.672;2023-09-30T03:24:52;10.60;;;3.95;;
58372;SDS011;44177;43.356;27.672;2023-09-30T03:27:19;11.73;;;3.85;;
58372;SDS011;44177;43.356;27.672;2023-09-30T03:29:45;11.90;;;3.85;;
58372;SDS011;44177;43.356;27.672;2023-09-30T03:32:11;10.25;;;3.80;;
58372;SDS011;44177;43.356;27.672;2023-09-30T03:34:36;15.70;;;4.22;;
58372;SDS011;44177;43.356;27.672;2023-09-30T03:37:02;8.73;;;3.67;;
58372;SDS011;44177;43.356;27.672;2023-09-30T03:39:28;9.63;;;3.95;;
58372;SDS011;44177;43.356;27.672;2023-09-30T03:41:54;9.23;;;4.05;;
58372;SDS011;44177;43.356;27.672;2023-09-30T03:44:21;11.85;;;4.07;;
58372;SDS011;44177;43.356;27.672;2023-09-30T03:46:48;15.10;;;3.95;;
58372;SDS011;44177;43.356;27.672;2023-09-30T03:49:13;10.20;;;4.05;;
58372;SDS011;44177;43.356;27.672;2023-09-30T03:51:39;10.13;;;3.97;;
58372;SDS011;44177;43.356;27.672;2023-09-30T03:54:04;6.40;;;4.00;;
58372;SDS011;44177;43.356;27.672;2023-09-30T03:56:31;11.15;;;4.32;;
58372;SDS011;44177;43.356;27.672;2023-09-30T03:58:56;11.27;;;4.47;;
58372;SDS011;44177;43.356;27.672;2023-09-30T04:01:22;12.07;;;4.18;;
58372;SDS011;44177;43.356;27.672;2023-09-30T04:03:48;9.07;;;4.25;;
58372;SDS011;44177;43.356;27.672;2023-09-30T04:06:14;12.57;;;4.05;;
58372;SDS011;44177;43.356;27.672;2023-09-30T04:08:40;12.15;;;4.28;;
58372;SDS011;44177;43.356;27.672;2023-09-30T04:11:05;13.98;;;3.97;;
58372;SDS011;44177;43.356;27.672;2023-09-30T04:13:31;11.30;;;4.10;;
58372;SDS011;44177;43.356;27.672;2023-09-30T04:15:58;9.73;;;3.88;;
58372;SDS011;44177;43.356;27.672;2023-09-30T04:18:23;10.82;;;4.13;;
58372;SDS011;44177;43.356;27.672;2023-09-30T04:20:54;8.32;;;4.10;;
58372;SDS011;44177;43.356;27.672;2023-09-30T04:23:19;10.65;;;4.13;;
58372;SDS011;44177;43.356;27.672;2023-09-30T04:25:45;12.18;;;4.28;;
58372;SDS011;44177;43.356;27.672;2023-09-30T04:28:11;10.13;;;4.35;;
58372;SDS011;44177;43.356;27.672;2023-09-30T04:30:38;10.48;;;4.00;;
58372;SDS011;44177;43.356;27.672;2023-09-30T04:33:04;9.05;;;4.57;;
58372;SDS011;44177;43.356;27.672;2023-09-30T04:35:30;6.13;;;4.03;;
58372;SDS011;44177;43.356;27.672;2023-09-30T04:37:56;10.07;;;4.63;;
58372;SDS011;44177;43.356;27.672;2023-09-30T04:40:26;10.02;;;4.13;;
58372;SDS011;44177;43.356;27.672;2023-09-30T04:42:52;11.82;;;4.40;;
58372;SDS011;44177;43.356;27.672;2023-09-30T04:45:20;13.15;;;4.85;;
58372;SDS011;44177;43.356;27.672;2023-09-30T04:47:45;11.70;;;4.32;;
58372;SDS011;44177;43.356;27.672;2023-09-30T04:50:13;9.98;;;4.50;;
58372;SDS011;44177;43.356;27.672;2023-09-30T04:52:41;11.13;;;4.25;;
58372;SDS011;44177;43.356;27.672;2023-09-30T04:55:07;10.30;;;4.50;;
58372;SDS011;44177;43.356;27.672;2023-09-30T04:57:37;15.75;;;4.75;;
58372;SDS011;44177;43.356;27.672;2023-09-30T05:00:03;8.18;;;4.18;;
58372;SDS011;44177;43.356;27.672;2023-09-30T05:02:38;8.57;;;4.03;;
58372;SDS011;44177;43.356;27.672;2023-09-30T05:05:04;8.23;;;4.30;;
58372;SDS011;44177;43.356;27.672;2023-09-30T05:07:31;9.02;;;4.13;;
58372;SDS011;44177;43.356;27.672;2023-09-30T05:09:59;17.98;;;4.60;;
58372;SDS011;44177;43.356;27.672;2023-09-30T05:12:25;12.75;;;4.97;;
58372;SDS011;44177;43.356;27.672;2023-09-30T05:14:50;15.70;;;4.63;;
58372;SDS011;44177;43.356;27.672;2023-09-30T05:17:17;7.43;;;4.85;;
58372;SDS011;44177;43.356;27.672;2023-09-30T05:19:43;12.68;;;5.22;;
58372;SDS011;44177;43.356;27.672;2023-09-30T05:22:09;9.82;;;4.88;;
58372;SDS011;44177;43.356;27.672;2023-09-30T05:24:35;8.85;;;4.65;;
58372;SDS011;44177;43.356;27.672;2023-09-30T05:27:00;10.55;;;4.35;;
58372;SDS011;44177;43.356;27.672;2023-09-30T05:29:26;12.80;;;5.40;;
58372;SDS011;44177;43.356;27.672;2023-09-30T05:31:52;9.30;;;4.53;;
58372;SDS011;44177;43.356;27.672;2023-09-30T05:34:17;11.93;;;4.40;;
58372;SDS011;44177;43.356;27.672;2023-09-30T05:36:43;7.00;;;4.13;;
58372;SDS011;44177;43.356;27.672;2023-09-30T05:39:08;12.10;;;4.03;;
58372;SDS011;44177;43.356;27.672;2023-09-30T05:41:35;11.57;;;4.00;;
58372;SDS011;44177;43.356;27.672;2023-09-30T05:44:02;10.73;;;3.88;;
58372;SDS011;44177;43.356;27.672;2023-09-30T05:46:30;13.15;;;4.45;;
58372;SDS011;44177;43.356;27.672;2023-09-30T05:48:56;8.88;;;4.05;;
58372;SDS011;44177;43.356;27.672;2023-09-30T05:51:21;9.68;;;4.18;;
58372;SDS011;44177;43.356;27.672;2023-09-30T05:53:47;9.85;;;4.13;;
58372;SDS011;44177;43.356;27.672;2023-09-30T05:56:13;8.95;;;3.70;;
58372;SDS011;44177;43.356;27.672;2023-09-30T05:58:40;9.10;;;4.93;;
58372;SDS011;44177;43.356;27.672;2023-09-30T06:01:09;12.75;;;4.20;;
58372;SDS011;44177;43.356;27.672;2023-09-30T06:03:39;9.88;;;3.97;;
58372;SDS011;44177;43.356;27.672;2023-09-30T06:06:14;8.40;;;4.20;;
58372;SDS011;44177;43.356;27.672;2023-09-30T06:08:41;10.73;;;4.65;;
58372;SDS011;44177;43.356;27.672;2023-09-30T06:11:15;10.95;;;4.10;;
58372;SDS011;44177;43.356;27.672;2023-09-30T06:13:52;9.15;;;4.38;;
58372;SDS011;44177;43.356;27.672;2023-09-30T06:16:18;15.80;;;4.40;;
58372;SDS011;44177;43.356;27.672;2023-09-30T06:18:44;12.20;;;5.18;;
58372;SDS011;44177;43.356;27.672;2023-09-30T06:21:10;13.82;;;4.60;;
58372;SDS011;44177;43.356;27.672;2023-09-30T06:23:36;11.18;;;4.32;;
58372;SDS011;44177;43.356;27.672;2023-09-30T06:26:02;14.88;;;4.07;;
58372;SDS011;44177;43.356;27.672;2023-09-30T06:28:28;10.18;;;4.40;;
58372;SDS011;44177;43.356;27.672;2023-09-30T06:30:56;22.67;;;4.80;;
58372;SDS011;44177;43.356;27.672;2023-09-30T06:33:22;13.27;;;5.00;;
58372;SDS011;44177;43.356;27.672;2023-09-30T06:35:48;14.25;;;4.53;;
58372;SDS011;44177;43.356;27.672;2023-09-30T06:38:20;9.85;;;4.43;;
58372;SDS011;44177;43.356;27.672;2023-09-30T06:40:46;12.32;;;4.88;;
58372;SDS011;44177;43.356;27.672;2023-09-30T06:43:15;10.90;;;4.55;;
58372;SDS011;44177;43.356;27.672;2023-09-30T06:45:44;9.45;;;4.80;;
58372;SDS011;44177;43.356;27.672;2023-09-30T06:48:10;13.50;;;4.60;;
58372;SDS011;44177;43.356;27.672;2023-09-30T06:50:43;10.52;;;4.50;;
58372;SDS011;44177;43.356;27.672;2023-09-30T06:53:15;9.32;;;5.07;;
58372;SDS011;44177;43.356;27.672;2023-09-30T06:55:42;10.38;;;4.85;;
58372;SDS011;44177;43.356;27.672;2023-09-30T06:58:08;15.07;;;4.93;;
58372;SDS011;44177;43.356;27.672;2023-09-30T07:00:35;17.52;;;4.80;;
58372;SDS011;44177;43.356;27.672;2023-09-30T07:03:02;16.13;;;4.60;;
58372;SDS011;44177;43.356;27.672;2023-09-30T07:05:27;9.60;;;4.45;;
58372;SDS011;44177;43.356;27.672;2023-09-30T07:07:54;13.77;;;4.93;;
58372;SDS011;44177;43.356;27.672;2023-09-30T07:10:19;13.35;;;4.68;;
58372;SDS011;44177;43.356;27.672;2023-09-30T07:12:45;9.15;;;4.30;;
58372;SDS011;44177;43.356;27.672;2023-09-30T07:15:11;12.63;;;4.55;;
58372;SDS011;44177;43.356;27.672;2023-09-30T07:17:37;13.25;;;5.10;;
58372;SDS011;44177;43.356;27.672;2023-09-30T07:20:03;12.77;;;4.93;;
58372;SDS011;44177;43.356;27.672;2023-09-30T07:22:30;15.70;;;4.55;;
58372;SDS011;44177;43.356;27.672;2023-09-30T07:24:56;11.90;;;4.65;;
58372;SDS011;44177;43.356;27.672;2023-09-30T07:27:23;14.68;;;4.65;;
58372;SDS011;44177;43.356;27.672;2023-09-30T07:29:49;11.00;;;5.05;;
58372;SDS011;44177;43.356;27.672;2023-09-30T07:32:14;12.00;;;4.07;;
58372;SDS011;44177;43.356;27.672;2023-09-30T07:34:40;20.58;;;4.45;;
58372;SDS011;44177;43.356;27.672;2023-09-30T07:37:05;15.20;;;4.47;;
58372;SDS011;44177;43.356;27.672;2023-09-30T07:39:31;5.85;;;4.22;;
58372;SDS011;44177;43.356;27.672;2023-09-30T07:41:56;9.30;;;3.95;;
58372;SDS011;44177;43.356;27.672;2023-09-30T07:44:22;9.75;;;4.28;;
58372;SDS011;44177;43.356;27.672;2023-09-30T07:46:47;9.80;;;4.60;;
58372;SDS011;44177;43.356;27.672;2023-09-30T07:49:13;12.05;;;4.68;;
58372;SDS011;44177;43.356;27.672;2023-09-30T07:51:38;10.52;;;4.15;;
58372;SDS011;44177;43.356;27.672;2023-09-30T07:54:04;6.90;;;4.07;;
58372;SDS011;44177;43.356;27.672;2023-09-30T07:56:30;9.95;;;3.88;;
58372;SDS011;44177;43.356;27.672;2023-09-30T07:58:56;12.70;;;4.25;;
58372;SDS011;44177;43.356;27.672;2023-09-30T08:01:21;12.27;;;4.38;;
58372;SDS011;44177;43.356;27.672;2023-09-30T08:03:47;14.27;;;4.57;;
58372;SDS011;44177;43.356;27.672;2023-09-30T08:06:12;15.18;;;4.20;;
58372;SDS011;44177;43.356;27.672;2023-09-30T08:08:38;7.20;;;4.22;;
58372;SDS011;44177;43.356;27.672;2023-09-30T08:11:04;9.30;;;4.15;;
58372;SDS011;44177;43.356;27.672;2023-09-30T08:13:31;10.02;;;4.47;;
58372;SDS011;44177;43.356;27.672;2023-09-30T08:15:57;16.65;;;4.72;;
58372;SDS011;44177;43.356;27.672;2023-09-30T08:18:23;15.55;;;4.30;;
58372;SDS011;44177;43.356;27.672;2023-09-30T08:20:49;9.00;;;3.95;;
58372;SDS011;44177;43.356;27.672;2023-09-30T08:23:14;8.82;;;3.80;;
58372;SDS011;44177;43.356;27.672;2023-09-30T08:25:40;9.07;;;4.00;;
58372;SDS011;44177;43.356;27.672;2023-09-30T08:28:05;12.63;;;4.00;;
58372;SDS011;44177;43.356;27.672;2023-09-30T08:30:34;8.60;;;4.10;;
58372;SDS011;44177;43.356;27.672;2023-09-30T08:33:01;9.82;;;3.67;;
58372;SDS011;44177;43.356;27.672;2023-09-30T08:35:28;14.40;;;3.72;;
58372;SDS011;44177;43.356;27.672;2023-09-30T08:37:54;10.40;;;3.92;;
58372;SDS011;44177;43.356;27.672;2023-09-30T08:40:20;15.63;;;4.25;;
58372;SDS011;44177;43.356;27.672;2023-09-30T08:42:48;9.77;;;3.85;;
58372;SDS011;44177;43.356;27.672;2023-09-30T08:45:16;7.88;;;3.80;;
58372;SDS011;44177;43.356;27.672;2023-09-30T08:47:42;13.18;;;3.50;;
58372;SDS011;44177;43.356;27.672;2023-09-30T08:50:09;8.70;;;3.90;;
58372;SDS011;44177;43.356;27.672;2023-09-30T08:52:36;11.32;;;4.13;;
58372;SDS011;44177;43.356;27.672;2023-09-30T08:55:04;7.20;;;3.85;;
58372;SDS011;44177;43.356;27.672;2023-09-30T08:57:30;7.60;;;3.45;;
58372;SDS011;44177;43.356;27.672;2023-09-30T08:59:56;9.35;;;4.40;;
58372;SDS011;44177;43.356;27.672;2023-09-30T09:02:23;8.45;;;3.78;;
58372;SDS011;44177;43.356;27.672;2023-09-30T09:04:48;11.95;;;3.70;;
58372;SDS011;44177;43.356;27.672;2023-09-30T09:07:14;11.63;;;3.95;;
58372;SDS011;44177;43.356;27.672;2023-09-30T09:09:40;14.57;;;3.95;;
58372;SDS011;44177;43.356;27.672;2023-09-30T09:12:05;13.60;;;3.75;;
58372;SDS011;44177;43.356;27.672;2023-09-30T09:14:38;16.10;;;4.25;;
58372;SDS011;44177;43.356;27.672;2023-09-30T09:17:11;10.38;;;3.75;;
58372;SDS011;44177;43.356;27.672;2023-09-30T09:19:37;12.88;;;3.75;;
58372;SDS011;44177;43.356;27.672;2023-09-30T09:22:03;12.90;;;4.53;;
58372;SDS011;44177;43.356;27.672;2023-09-30T09:24:35;15.73;;;4.43;;
58372;SDS011;44177;43.356;27.672;2023-09-30T09:27:08;15.20;;;4.20;;
58372;SDS011;44177;43.356;27.672;2023-09-30T09:29:37;7.93;;;3.53;;
58372;SDS011;44177;43.356;27.672;2023-09-30T09:32:09;9.18;;;3.72;;
58372;SDS011;44177;43.356;27.672;2023-09-30T09:34:39;15.43;;;3.67;;
58372;SDS011;44177;43.356;27.672;2023-09-30T09:37:15;10.88;;;3.83;;
58372;SDS011;44177;43.356;27.672;2023-09-30T09:40:15;16.70;;;3.55;;
58372;SDS011;44177;43.356;27.672;2023-09-30T09:42:35;15.65;;;3.63;;
58372;SDS011;44177;43.356;27.672;2023-09-30T09:45:03;11.73;;;3.70;;
58372;SDS011;44177;43.356;27.672;2023-09-30T09:47:31;13.45;;;3.63;;
58372;SDS011;44177;43.356;27.672;2023-09-30T09:49:58;9.48;;;3.90;;
58372;SDS011;44177;43.356;27.672;2023-09-30T09:52:25;10.43;;;3.67;;
58372;SDS011;44177;43.356;27.672;2023-09-30T09:54:50;20.80;;;4.30;;
58372;SDS011;44177;43.356;27.672;2023-09-30T09:57:17;11.40;;;3.67;;
58372;SDS011;44177;43.356;27.672;2023-09-30T09:59:46;8.10;;;3.65;;
58372;SDS011;44177;43.356;27.672;2023-09-30T10:02:13;13.60;;;4.25;;
58372;SDS011;44177;43.356;27.672;2023-09-30T10:04:43;14.13;;;4.00;;
58372;SDS011;44177;43.356;27.672;2023-09-30T10:07:20;9.70;;;3.60;;
58372;SDS011;44177;43.356;27.672;2023-09-30T10:09:51;14.00;;;4.10;;
58372;SDS011;44177;43.356;27.672;2023-09-30T10:12:18;11.48;;;3.58;;
58372;SDS011;44177;43.356;27.672;2023-09-30T10:14:44;13.73;;;3.80;;
58372;SDS011;44177;43.356;27.672;2023-09-30T10:17:10;10.60;;;3.65;;
58372;SDS011;44177;43.356;27.672;2023-09-30T10:19:36;14.82;;;4.15;;
58372;SDS011;44177;43.356;27.672;2023-09-30T10:22:21;14.70;;;3.70;;
58372;SDS011;44177;43.356;27.672;2023-09-30T10:24:49;12.50;;;3.78;;
58372;SDS011;44177;43.356;27.672;2023-09-30T10:29:59;10.75;;;4.30;;
58372;SDS011;44177;43.356;27.672;2023-09-30T10:40:47;10.43;;;4.22;;
58372;SDS011;44177;43.356;27.672;2023-09-30T10:45:58;8.75;;;3.70;;
58372;SDS011;44177;43.356;27.672;2023-09-30T10:51:15;10.13;;;4.05;;
58372;SDS011;44177;43.356;27.672;2023-09-30T10:53:49;12.18;;;4.03;;
58372;SDS011;44177;43.356;27.672;2023-09-30T10:56:22;8.93;;;3.85;;
58372;SDS011;44177;43.356;27.672;2023-09-30T10:58:50;12.75;;;3.88;;
58372;SDS011;44177;43.356;27.672;2023-09-30T11:01:17;15.05;;;4.28;;
58372;SDS011;44177;43.356;27.672;2023-09-30T11:03:47;10.65;;;3.95;;
58372;SDS011;44177;43.356;27.672;2023-09-30T11:06:17;10.48;;;4.20;;
58372;SDS011;44177;43.356;27.672;2023-09-30T11:08:55;13.30;;;3.92;;
58372;SDS011;44177;43.356;27.672;2023-09-30T11:11:39;16.05;;;4.10;;
58372;SDS011;44177;43.356;27.672;2023-09-30T11:14:17;11.02;;;4.13;;
58372;SDS011;44177;43.356;27.672;2023-09-30T11:16:45;18.05;;;4.45;;
58372;SDS011;44177;43.356;27.672;2023-09-30T11:19:12;11.48;;;3.80;;
58372;SDS011;44177;43.356;27.672;2023-09-30T11:21:40;10.07;;;4.00;;
58372;SDS011;44177;43.356;27.672;2023-09-30T11:24:08;8.63;;;3.90;;
58372;SDS011;44177;43.356;27.672;2023-09-30T11:26:34;15.77;;;4.00;;
58372;SDS011;44177;43.356;27.672;2023-09-30T11:29:06;16.35;;;4.32;;
58372;SDS011;44177;43.356;27.672;2023-09-30T11:31:33;9.73;;;3.83;;
58372;SDS011;44177;43.356;27.672;2023-09-30T11:33:59;15.10;;;4.13;;
58372;SDS011;44177;43.356;27.672;2023-09-30T11:36:29;14.65;;;3.72;;
58372;SDS011;44177;43.356;27.672;2023-09-30T11:38:56;11.80;;;3.85;;
58372;SDS011;44177;43.356;27.672;2023-09-30T11:41:22;11.38;;;3.58;;
58372;SDS011;44177;43.356;27.672;2023-09-30T11:49:01;14.98;;;4.05;;
58372;SDS011;44177;43.356;27.672;2023-09-30T11:51:29;12.52;;;4.40;;
58372;SDS011;44177;43.356;27.672;2023-09-30T11:54:07;10.88;;;4.50;;
58372;SDS011;44177;43.356;27.672;2023-09-30T11:56:36;10.02;;;4.28;;
58372;SDS011;44177;43.356;27.672;2023-09-30T11:59:02;11.82;;;4.25;;
58372;SDS011;44177;43.356;27.672;2023-09-30T12:01:27;12.13;;;4.10;;
58372;SDS011;44177;43.356;27.672;2023-09-30T12:03:55;17.05;;;4.45;;
58372;SDS011;44177;43.356;27.672;2023-09-30T12:06:23;9.38;;;4.00;;
58372;SDS011;44177;43.356;27.672;2023-09-30T12:08:48;12.82;;;4.20;;
58372;SDS011;44177;43.356;27.672;2023-09-30T12:11:16;12.80;;;4.15;;
58372;SDS011;44177;43.356;27.672;2023-09-30T12:13:45;14.30;;;4.20;;
58372;SDS011;44177;43.356;27.672;2023-09-30T12:16:14;12.43;;;4.50;;
58372;SDS011;44177;43.356;27.672;2023-09-30T12:18:39;18.02;;;4.40;;
58372;SDS011;44177;43.356;27.672;2023-09-30T12:21:06;9.00;;;4.10;;
58372;SDS011;44177;43.356;27.672;2023-09-30T12:23:36;13.15;;;4.80;;
58372;SDS011;44177;43.356;27.672;2023-09-30T12:26:02;14.20;;;4.78;;
58372;SDS011;44177;43.356;27.672;2023-09-30T12:28:30;16.75;;;4.40;;
58372;SDS011;44177;43.356;27.672;2023-09-30T12:30:59;14.10;;;5.00;;
58372;SDS011;44177;43.356;27.672;2023-09-30T12:33:29;15.68;;;4.40;;
58372;SDS011;44177;43.356;27.672;2023-09-30T12:35:56;8.43;;;3.63;;
58372;SDS011;44177;43.356;27.672;2023-09-30T12:38:25;12.18;;;3.90;;
58372;SDS011;44177;43.356;27.672;2023-09-30T12:40:51;11.82;;;3.95;;
58372;SDS011;44177;43.356;27.672;2023-09-30T12:43:18;12.00;;;3.70;;
58372;SDS011;44177;43.356;27.672;2023-09-30T12:45:44;11.57;;;4.13;;
58372;SDS011;44177;43.356;27.672;2023-09-30T12:48:10;15.80;;;4.07;;
58372;SDS011;44177;43.356;27.672;2023-09-30T12:50:35;13.65;;;3.90;;
58372;SDS011;44177;43.356;27.672;2023-09-30T12:53:01;14.15;;;4.38;;
58372;SDS011;44177;43.356;27.672;2023-09-30T12:55:27;19.40;;;4.05;;
58372;SDS011;44177;43.356;27.672;2023-09-30T12:57:52;20.13;;;4.13;;
58372;SDS011;44177;43.356;27.672;2023-09-30T13:00:18;11.60;;;3.63;;
58372;SDS011;44177;43.356;27.672;2023-09-30T13:02:44;13.18;;;4.80;;
58372;SDS011;44177;43.356;27.672;2023-09-30T13:05:11;16.95;;;4.15;;
58372;SDS011;44177;43.356;27.672;2023-09-30T13:07:37;16.70;;;4.65;;
58372;SDS011;44177;43.356;27.672;2023-09-30T13:10:02;18.30;;;3.83;;
58372;SDS011;44177;43.356;27.672;2023-09-30T13:12:30;11.00;;;4.72;;
58372;SDS011;44177;43.356;27.672;2023-09-30T13:14:58;13.52;;;3.88;;
58372;SDS011;44177;43.356;27.672;2023-09-30T13:17:23;16.67;;;4.13;;
58372;SDS011;44177;43.356;27.672;2023-09-30T13:19:50;14.65;;;3.97;;
58372;SDS011;44177;43.356;27.672;2023-09-30T13:22:16;16.75;;;3.95;;
58372;SDS011;44177;43.356;27.672;2023-09-30T13:24:42;10.85;;;3.67;;
58372;SDS011;44177;43.356;27.672;2023-09-30T13:27:08;11.15;;;3.97;;
58372;SDS011;44177;43.356;27.672;2023-09-30T13:29:34;15.95;;;3.85;;
58372;SDS011;44177;43.356;27.672;2023-09-30T13:31:59;8.65;;;3.75;;
58372;SDS011;44177;43.356;27.672;2023-09-30T13:34:25;11.60;;;3.72;;
58372;SDS011;44177;43.356;27.672;2023-09-30T13:36:50;9.85;;;4.35;;
58372;SDS011;44177;43.356;27.672;2023-09-30T13:39:15;10.05;;;3.92;;
58372;SDS011;44177;43.356;27.672;2023-09-30T13:41:42;10.70;;;4.18;;
58372;SDS011;44177;43.356;27.672;2023-09-30T13:44:08;17.20;;;4.25;;
58372;SDS011;44177;43.356;27.672;2023-09-30T13:46:34;11.20;;;3.85;;
58372;SDS011;44177;43.356;27.672;2023-09-30T13:48:59;10.30;;;3.85;;
58372;SDS011;44177;43.356;27.672;2023-09-30T13:51:25;8.95;;;3.78;;
58372;SDS011;44177;43.356;27.672;2023-09-30T13:53:51;15.25;;;4.13;;
58372;SDS011;44177;43.356;27.672;2023-09-30T13:56:18;9.93;;;5.32;;
58372;SDS011;44177;43.356;27.672;2023-09-30T13:58:44;14.18;;;4.75;;
58372;SDS011;44177;43.356;27.672;2023-09-30T14:01:09;14.60;;;4.38;;
58372;SDS011;44177;43.356;27.672;2023-09-30T14:03:37;15.45;;;5.40;;
58372;SDS011;44177;43.356;27.672;2023-09-30T14:06:09;14.68;;;4.45;;
58372;SDS011;44177;43.356;27.672;2023-09-30T14:08:37;17.98;;;4.32;;
58372;SDS011;44177;43.356;27.672;2023-09-30T14:11:03;13.68;;;4.15;;
58372;SDS011;44177;43.356;27.672;2023-09-30T14:13:29;11.93;;;4.40;;
58372;SDS011;44177;43.356;27.672;2023-09-30T14:15:55;9.98;;;4.20;;
58372;SDS011;44177;43.356;27.672;2023-09-30T14:18:21;16.20;;;4.45;;
58372;SDS011;44177;43.356;27.672;2023-09-30T14:20:47;12.57;;;4.10;;
58372;SDS011;44177;43.356;27.672;2023-09-30T14:23:12;11.82;;;4.03;;
58372;SDS011;44177;43.356;27.672;2023-09-30T14:25:38;12.82;;;4.07;;
58372;SDS011;44177;43.356;27.672;2023-09-30T14:28:04;13.20;;;4.25;;
58372;SDS011;44177;43.356;27.672;2023-09-30T14:30:30;13.60;;;4.28;;
58372;SDS011;44177;43.356;27.672;2023-09-30T14:32:56;12.90;;;3.97;;
58372;SDS011;44177;43.356;27.672;2023-09-30T14:35:21;9.63;;;4.30;;
58372;SDS011;44177;43.356;27.672;2023-09-30T14:37:46;12.57;;;4.45;;
58372;SDS011;44177;43.356;27.672;2023-09-30T14:40:12;11.95;;;4.50;;
58372;SDS011;44177;43.356;27.672;2023-09-30T14:42:38;15.23;;;4.10;;
58372;SDS011;44177;43.356;27.672;2023-09-30T14:45:04;15.73;;;4.43;;
58372;SDS011;44177;43.356;27.672;2023-09-30T14:47:29;7.68;;;4.45;;